Time;durP1;ratioP1;P1;durP2;ratioP2;P2;SDS_P1;SDS_P2;PMS_P1;PMS_P2;Temp;Humidity;BMP_temperature;BMP_pressure;BME280_temperature;BME280_humidity;BME280_pressure;Samples;Min_cycle;Max_cycle;Signal;HPM_P1;HPM_P2
2021/10/02 00:45:05;;;;;;;15.77;12.68;;;;;;;12.71;100.00;100764.09;4928134;28;20063;-85
2021/10/02 00:47:35;;;;;;;16.23;12.18;;;;;;;12.70;100.00;100769.66;4927784;28;20039;-87
2021/10/02 00:50:02;;;;;;;15.07;11.98;;;;;;;12.72;100.00;100768.47;4922614;28;20051;-84
2021/10/02 00:52:27;;;;;;;16.77;12.68;;;;;;;12.71;100.00;100756.00;4925134;28;20052;-89
2021/10/02 00:54:53;;;;;;;14.02;12.18;;;;;;;12.72;100.00;100751.47;4936949;28;20074;-85
2021/10/02 00:57:18;;;;;;;16.40;12.73;;;;;;;12.74;100.00;100754.81;4937894;28;20285;-85
2021/10/02 00:59:46;;;;;;;18.52;13.55;;;;;;;12.71;100.00;100752.47;4936065;28;20074;-88
2021/10/02 01:02:16;;;;;;;18.35;13.48;;;;;;;12.74;100.00;100749.44;4934599;28;20054;-85
2021/10/02 01:05:12;;;;;;;18.90;13.55;;;;;;;12.72;100.00;100740.72;4935009;28;20031;-86
2021/10/02 01:08:22;;;;;;;18.00;13.80;;;;;;;12.73;100.00;100743.22;4934429;28;20063;-89
2021/10/02 01:11:16;;;;;;;16.35;13.93;;;;;;;12.69;100.00;100747.28;4883743;29;20045;-87
2021/10/02 01:14:18;;;;;;;18.83;14.27;;;;;;;12.70;100.00;100743.56;4883293;29;20404;-86
2021/10/02 01:16:46;;;;;;;20.92;15.18;;;;;;;12.71;100.00;100734.47;4931639;28;20228;-86
2021/10/02 01:19:31;;;;;;;17.33;15.10;;;;;;;12.74;100.00;100739.50;4917544;29;20094;-88
2021/10/02 01:22:09;;;;;;;20.33;16.15;;;;;;;12.72;100.00;100741.53;4941453;28;20055;-89
2021/10/02 01:25:01;;;;;;;23.58;15.75;;;;;;;12.76;100.00;100732.06;4946667;28;20133;-86
2021/10/02 01:28:04;;;;;;;21.58;16.58;;;;;;;12.73;100.00;100731.59;4942093;28;20039;-86
2021/10/02 01:33:41;;;;;;;21.38;16.52;;;;;;;12.73;100.00;100729.75;4910230;28;20063;-88
2021/10/02 01:36:47;;;;;;;19.85;15.82;;;;;;;12.72;100.00;100720.00;4942306;28;20047;-87
2021/10/02 01:47:35;;;;;;;24.73;17.42;;;;;;;12.74;100.00;100722.50;4935101;28;20046;-89
2021/10/02 01:50:01;;;;;;;20.50;17.50;;;;;;;12.72;100.00;100720.00;4941172;28;20142;-86
2021/10/02 01:52:36;;;;;;;22.60;17.88;;;;;;;12.76;100.00;100726.69;4938199;28;20353;-87
2021/10/02 01:55:09;;;;;;;22.58;18.15;;;;;;;12.79;100.00;100723.63;4908450;28;20063;-88
2021/10/02 01:57:41;;;;;;;21.52;16.35;;;;;;;12.79;100.00;100715.56;4938850;28;20495;-86
2021/10/02 02:00:09;;;;;;;20.52;16.40;;;;;;;12.79;100.00;100723.63;4912140;29;20054;-88
2021/10/02 02:02:36;;;;;;;26.70;18.45;;;;;;;12.80;100.00;100716.38;4940807;28;20044;-90
2021/10/02 02:05:07;;;;;;;22.13;17.75;;;;;;;12.77;100.00;100706.81;4913091;29;20074;-89
2021/10/02 02:07:35;;;;;;;23.10;17.75;;;;;;;12.79;100.00;100712.03;4933115;28;20043;-87
2021/10/02 02:10:03;;;;;;;20.17;16.38;;;;;;;12.77;100.00;100712.19;4927683;28;20048;-88
2021/10/02 02:12:32;;;;;;;24.52;17.90;;;;;;;12.79;100.00;100706.66;4942447;28;20043;-87
2021/10/02 02:15:04;;;;;;;26.05;18.98;;;;;;;12.81;100.00;100697.38;4943926;28;20110;-88
2021/10/02 02:17:31;;;;;;;25.02;19.42;;;;;;;12.83;100.00;100703.44;4927680;28;20409;-87
2021/10/02 02:19:59;;;;;;;25.92;19.38;;;;;;;12.82;100.00;100709.81;4928384;29;20490;-87
2021/10/02 02:22:24;;;;;;;25.75;19.85;;;;;;;12.81;100.00;100697.38;4937531;28;20123;-88
2021/10/02 02:24:50;;;;;;;23.63;19.77;;;;;;;12.81;100.00;100696.53;4942646;28;20469;-87
2021/10/02 02:27:16;;;;;;;28.95;19.77;;;;;;;12.82;100.00;100695.50;4937522;28;20113;-90
2021/10/02 02:29:41;;;;;;;26.52;20.55;;;;;;;12.82;100.00;100699.03;4936040;28;20451;-88
2021/10/02 02:32:07;;;;;;;26.85;20.38;;;;;;;12.80;100.00;100695.72;4926798;28;20517;-86
2021/10/02 02:34:32;;;;;;;24.55;19.67;;;;;;;12.83;100.00;100699.88;4933932;28;20051;-85
2021/10/02 02:36:58;;;;;;;28.45;19.33;;;;;;;12.83;100.00;100694.47;4935877;28;20494;-89
2021/10/02 02:39:25;;;;;;;25.33;17.98;;;;;;;12.78;100.00;100686.97;4937279;28;20391;-89
2021/10/02 02:41:50;;;;;;;27.88;19.70;;;;;;;12.79;100.00;100693.19;4938912;28;20047;-88
2021/10/02 02:44:16;;;;;;;26.55;21.13;;;;;;;12.87;100.00;100680.50;4936323;28;20047;-89
2021/10/02 02:46:43;;;;;;;28.30;20.00;;;;;;;12.85;100.00;100679.00;4942475;28;20449;-87
2021/10/02 02:49:08;;;;;;;29.00;20.67;;;;;;;12.85;100.00;100673.59;4938209;28;20079;-88
2021/10/02 02:52:00;;;;;;;29.23;20.75;;;;;;;12.87;100.00;100676.97;4943102;28;20139;-87
2021/10/02 02:54:34;;;;;;;25.73;19.17;;;;;;;12.85;100.00;100681.69;4927160;28;20114;-87
2021/10/02 02:57:07;;;;;;;31.75;21.73;;;;;;;12.83;100.00;100687.28;4937429;28;20531;-87
2021/10/02 02:59:37;;;;;;;28.13;20.38;;;;;;;12.83;100.00;100684.56;4931130;28;20055;-89
2021/10/02 03:02:04;;;;;;;29.17;20.08;;;;;;;12.84;100.00;100686.25;4943869;28;20051;-88
2021/10/02 03:04:33;;;;;;;30.85;20.67;;;;;;;12.83;100.00;100684.56;4942284;28;20043;-86
2021/10/02 03:07:00;;;;;;;27.90;20.10;;;;;;;12.85;100.00;100689.75;4947721;28;20110;-87
2021/10/02 03:09:27;;;;;;;30.15;18.88;;;;;;;12.90;100.00;100695.44;4941355;28;20054;-87
2021/10/02 03:11:56;;;;;;;29.40;20.13;;;;;;;12.93;100.00;100699.63;4943752;28;20118;-87
2021/10/02 03:14:23;;;;;;;29.10;21.38;;;;;;;12.93;100.00;100692.38;4942325;28;20047;-87
2021/10/02 03:16:53;;;;;;;30.58;20.45;;;;;;;12.91;100.00;100691.72;4934178;28;20043;-87
2021/10/02 03:19:21;;;;;;;29.38;20.42;;;;;;;12.93;100.00;100694.25;4933423;28;20051;-88
2021/10/02 03:21:49;;;;;;;28.30;18.65;;;;;;;12.89;100.00;100691.09;4941133;28;20125;-87
2021/10/02 03:24:15;;;;;;;31.30;21.73;;;;;;;12.92;100.00;100687.16;4948637;28;20453;-87
2021/10/02 03:26:41;;;;;;;30.98;20.70;;;;;;;12.93;100.00;100699.63;4948800;28;20047;-88
2021/10/02 03:29:08;;;;;;;29.73;21.60;;;;;;;12.91;100.00;100696.28;4947347;28;20058;-86
2021/10/02 03:31:34;;;;;;;30.70;20.10;;;;;;;12.91;100.00;100698.97;4949848;28;20621;-89
2021/10/02 03:34:01;;;;;;;29.95;20.27;;;;;;;12.86;100.00;100686.91;4938180;28;20721;-88
2021/10/02 03:36:28;;;;;;;28.45;19.83;;;;;;;12.89;100.00;100683.00;4943690;28;20051;-87
2021/10/02 03:38:54;;;;;;;29.33;19.90;;;;;;;12.91;100.00;100686.34;4944814;28;20056;-87
2021/10/02 03:41:20;;;;;;;28.42;21.23;;;;;;;12.90;100.00;100681.16;4941565;28;20532;-87
2021/10/02 03:43:45;;;;;;;27.40;21.42;;;;;;;12.92;100.00;100674.56;4944650;28;20048;-86
2021/10/02 03:46:11;;;;;;;28.30;19.75;;;;;;;12.88;100.00;100667.84;4947410;28;20039;-87
2021/10/02 03:48:36;;;;;;;30.55;21.92;;;;;;;12.91;100.00;100674.72;4949642;28;20070;-87
2021/10/02 03:51:02;;;;;;;32.33;21.50;;;;;;;12.90;100.00;100673.91;4926095;29;20080;-89
2021/10/02 03:53:28;;;;;;;29.67;20.35;;;;;;;12.90;100.00;100668.53;4941631;28;20505;-88
2021/10/02 03:55:55;;;;;;;28.27;19.60;;;;;;;12.91;100.00;100663.97;4944489;28;20558;-90
2021/10/02 03:58:20;;;;;;;26.85;20.10;;;;;;;12.87;100.00;100667.03;4926947;28;20065;-87
2021/10/02 04:00:46;;;;;;;31.58;22.70;;;;;;;12.89;100.00;100664.16;4945129;28;20043;-89
2021/10/02 04:03:11;;;;;;;29.95;22.80;;;;;;;12.91;100.00;100658.56;4947460;28;20135;-88
2021/10/02 04:05:36;;;;;;;30.98;22.90;;;;;;;12.86;100.00;100661.84;4958530;28;20496;-87
2021/10/02 04:08:02;;;;;;;31.10;22.80;;;;;;;12.85;100.00;100660.13;4952435;28;20425;-92
2021/10/02 04:10:27;;;;;;;33.70;25.27;;;;;;;12.90;100.00;100665.81;4955019;28;20043;-88
2021/10/02 04:12:53;;;;;;;36.78;24.00;;;;;;;12.88;100.00;100662.47;4949522;28;20143;-87
2021/10/02 04:15:18;;;;;;;29.85;22.23;;;;;;;12.85;100.00;100658.28;4943157;28;20043;-88
2021/10/02 04:17:44;;;;;;;29.85;21.65;;;;;;;12.85;100.00;100662.84;4941549;28;20518;-88
2021/10/02 04:20:09;;;;;;;28.92;22.73;;;;;;;12.84;100.00;100661.16;4926569;28;20057;-90
2021/10/02 04:22:35;;;;;;;33.97;25.45;;;;;;;12.84;100.00;100670.09;4921977;28;20047;-89
2021/10/02 04:25:00;;;;;;;34.53;22.77;;;;;;;12.83;100.00;100673.81;4936343;28;20051;-89
2021/10/02 04:27:26;;;;;;;37.85;22.15;;;;;;;12.82;100.00;100676.66;4937430;28;20043;-87
2021/10/02 04:29:51;;;;;;;32.30;22.10;;;;;;;12.81;100.00;100680.38;4931744;28;20058;-88
2021/10/02 04:32:17;;;;;;;25.50;20.60;;;;;;;12.81;100.00;100678.53;4911038;29;20087;-92
2021/10/02 04:34:42;;;;;;;28.88;21.58;;;;;;;12.82;100.00;100679.34;4933442;28;20426;-89
2021/10/02 04:37:08;;;;;;;31.30;21.98;;;;;;;12.82;100.00;100674.81;4943220;28;20047;-88
2021/10/02 04:39:34;;;;;;;26.50;20.55;;;;;;;12.85;100.00;100676.28;4941688;28;20035;-88
2021/10/02 04:42:00;;;;;;;27.38;21.25;;;;;;;12.83;100.00;100668.41;4942519;28;20047;-89
2021/10/02 04:44:26;;;;;;;28.92;20.10;;;;;;;12.82;100.00;100666.72;4943074;28;20673;-90
2021/10/02 04:46:52;;;;;;;28.10;19.70;;;;;;;12.81;100.00;100675.84;4920754;28;20154;-92
2021/10/02 04:49:17;;;;;;;30.70;21.02;;;;;;;12.83;100.00;100678.31;4923565;28;20353;-90
2021/10/02 04:51:43;;;;;;;30.00;22.00;;;;;;;12.83;100.00;100673.81;4926185;28;20032;-88
2021/10/02 04:54:10;;;;;;;29.73;20.45;;;;;;;12.82;100.00;100682.88;4926633;28;20567;-88
2021/10/02 04:56:36;;;;;;;30.77;21.55;;;;;;;12.82;100.00;100688.25;4943616;28;20466;-87
2021/10/02 04:59:02;;;;;;;30.85;21.63;;;;;;;12.80;100.00;100684.94;4938602;28;20059;-91
2021/10/02 05:01:27;;;;;;;32.00;21.27;;;;;;;12.83;100.00;100684.56;4944996;28;20043;-85
2021/10/02 05:03:53;;;;;;;34.08;22.20;;;;;;;12.84;100.00;100683.53;4946234;28;20667;-87
2021/10/02 05:06:19;;;;;;;29.80;20.73;;;;;;;12.80;100.00;100679.56;4947831;28;20047;-87
2021/10/02 05:08:45;;;;;;;25.65;18.08;;;;;;;12.82;100.00;100685.56;4944484;28;20074;-87
2021/10/02 05:11:11;;;;;;;27.00;20.05;;;;;;;12.79;100.00;100677.84;4933390;28;20058;-87
2021/10/02 05:13:37;;;;;;;30.13;19.05;;;;;;;12.80;100.00;100678.69;4921295;29;20047;-88
2021/10/02 05:16:03;;;;;;;25.88;18.60;;;;;;;12.78;100.00;100676.19;4940922;28;20077;-88
2021/10/02 05:18:29;;;;;;;24.08;17.17;;;;;;;12.77;100.00;100679.88;4949534;28;20419;-88
2021/10/02 05:20:54;;;;;;;23.80;16.52;;;;;;;12.80;100.00;100678.69;4938255;28;20063;-89
2021/10/02 05:23:20;;;;;;;28.40;18.65;;;;;;;12.81;100.00;100673.13;4944119;28;20482;-90
2021/10/02 05:25:45;;;;;;;27.92;18.48;;;;;;;12.81;100.00;100680.38;4925627;28;20057;-87
2021/10/02 05:28:11;;;;;;;24.17;19.33;;;;;;;12.83;100.00;100676.50;4947212;28;20057;-88
2021/10/02 05:30:36;;;;;;;25.63;18.40;;;;;;;12.83;100.00;100672.94;4944210;28;20521;-87
2021/10/02 05:33:04;;;;;;;27.67;19.90;;;;;;;12.80;100.00;100681.38;4945249;28;20150;-87
2021/10/02 05:35:31;;;;;;;25.90;19.25;;;;;;;12.81;100.00;100678.53;4943276;28;20043;-89
2021/10/02 05:37:57;;;;;;;32.85;17.85;;;;;;;12.82;100.00;100690.97;4944452;28;20059;-90
2021/10/02 05:40:22;;;;;;;26.23;18.83;;;;;;;12.82;100.00;100695.50;4944745;28;20051;-87
2021/10/02 05:42:47;;;;;;;29.17;20.35;;;;;;;12.82;100.00;100699.03;4944158;28;20135;-88
2021/10/02 05:45:13;;;;;;;29.92;21.73;;;;;;;12.82;100.00;100690.13;4943053;28;20052;-88
2021/10/02 05:47:38;;;;;;;29.15;21.63;;;;;;;12.84;100.00;100680.03;4944188;28;20394;-89
2021/10/02 05:50:04;;;;;;;34.22;23.83;;;;;;;12.82;100.00;100679.34;4932148;29;20402;-88
2021/10/02 05:52:30;;;;;;;27.13;21.58;;;;;;;12.80;100.00;100674.16;4941058;28;20648;-88
2021/10/02 05:54:55;;;;;;;25.83;20.27;;;;;;;12.77;100.00;100671.81;4926657;28;20063;-89
2021/10/02 05:57:21;;;;;;;25.52;19.33;;;;;;;12.75;100.00;100671.19;4943816;28;20081;-87
2021/10/02 05:59:47;;;;;;;26.15;20.95;;;;;;;12.76;100.00;100680.91;4947351;28;20446;-88
2021/10/02 06:02:13;;;;;;;31.55;21.25;;;;;;;12.77;100.00;100673.66;4926165;28;20282;-89
2021/10/02 06:04:38;;;;;;;28.08;21.15;;;;;;;12.77;100.00;100674.50;4951871;28;20238;-85
2021/10/02 06:07:03;;;;;;;27.45;22.80;;;;;;;12.77;100.00;100674.50;4942490;28;20054;-88
2021/10/02 06:09:29;;;;;;;29.60;21.27;;;;;;;12.78;100.00;100681.59;4944663;28;20353;-87
2021/10/02 06:11:54;;;;;;;29.48;22.10;;;;;;;12.75;100.00;100687.34;4948672;28;20106;-86
2021/10/02 06:14:20;;;;;;;28.85;22.23;;;;;;;12.77;100.00;100687.97;4945666;28;20231;-88
2021/10/02 06:16:45;;;;;;;32.63;23.02;;;;;;;12.75;100.00;100687.34;4941935;28;20354;-88
2021/10/02 06:19:11;;;;;;;27.08;21.33;;;;;;;12.76;100.00;100685.47;4941301;28;20055;-89
2021/10/02 06:21:36;;;;;;;27.52;20.67;;;;;;;12.74;100.00;100682.94;4939942;28;20494;-87
2021/10/02 06:24:02;;;;;;;23.73;18.15;;;;;;;12.71;100.00;100693.25;4941673;28;20220;-88
2021/10/02 06:26:30;;;;;;;24.35;17.52;;;;;;;12.72;100.00;100686.88;4940170;28;20146;-90
2021/10/02 06:28:56;;;;;;;24.10;17.17;;;;;;;12.74;100.00;100688.31;4925915;28;20157;-88
2021/10/02 06:31:21;;;;;;;27.02;16.08;;;;;;;12.75;100.00;100687.34;4949589;28;20051;-89
2021/10/02 06:33:47;;;;;;;25.80;16.95;;;;;;;12.75;100.00;100692.72;4943200;28;20471;-87
2021/10/02 06:36:13;;;;;;;20.98;15.68;;;;;;;12.77;100.00;100690.66;4938860;28;20482;-87
2021/10/02 06:38:39;;;;;;;22.55;15.55;;;;;;;12.78;100.00;100684.28;4937654;28;20057;-90
2021/10/02 06:41:05;;;;;;;21.45;14.63;;;;;;;12.76;100.00;100688.16;4943894;28;20047;-89
2021/10/02 06:43:31;;;;;;;21.98;14.95;;;;;;;12.75;100.00;100697.28;4946778;28;20055;-87
2021/10/02 06:45:57;;;;;;;22.55;16.52;;;;;;;12.77;100.00;100687.97;4944553;28;20059;-86
2021/10/02 06:48:23;;;;;;;21.75;14.10;;;;;;;12.75;100.00;100695.41;4925769;28;20042;-86
2021/10/02 06:50:48;;;;;;;20.60;14.80;;;;;;;12.75;100.00;100692.72;4940050;28;20051;-87
2021/10/02 06:53:13;;;;;;;18.48;16.23;;;;;;;12.79;100.00;100699.41;4940568;28;20071;-86
2021/10/02 06:55:40;;;;;;;21.50;14.63;;;;;;;12.81;100.00;100688.47;4939787;28;20047;-86
2021/10/02 06:58:07;;;;;;;28.05;16.67;;;;;;;12.84;100.00;100690.78;4950756;28;20434;-87
2021/10/02 07:00:32;;;;;;;25.13;17.08;;;;;;;12.86;100.00;100694.16;4932446;28;20128;-86
2021/10/02 07:02:58;;;;;;;25.85;18.48;;;;;;;12.88;100.00;100684.84;4928968;28;20054;-86
2021/10/02 07:05:23;;;;;;;23.95;17.65;;;;;;;12.87;100.00;100691.25;4945009;28;20134;-87
2021/10/02 07:07:48;;;;;;;23.00;17.35;;;;;;;12.92;100.00;100698.81;4946424;28;20121;-85
2021/10/02 07:10:14;;;;;;;22.52;17.45;;;;;;;12.91;100.00;100696.28;4958897;28;20078;-87
2021/10/02 07:12:39;;;;;;;25.85;17.38;;;;;;;12.92;100.00;100692.56;4966192;28;20051;-86
2021/10/02 07:15:07;;;;;;;24.25;17.33;;;;;;;12.94;100.00;100694.06;4966677;28;20061;-85
2021/10/02 07:17:32;;;;;;;22.88;16.05;;;;;;;12.91;100.00;100686.34;4965209;28;20200;-88
2021/10/02 07:19:58;;;;;;;20.10;14.68;;;;;;;12.91;100.00;100699.81;4965809;28;20549;-87
2021/10/02 07:22:23;;;;;;;22.95;16.15;;;;;;;12.93;100.00;100696.94;4951372;28;20054;-87
2021/10/02 07:24:49;;;;;;;18.95;14.93;;;;;;;12.99;100.00;100688.13;4948317;28;20050;-86
2021/10/02 07:27:14;;;;;;;22.20;14.80;;;;;;;12.98;100.00;100697.25;4954233;28;20066;-87
2021/10/02 07:29:39;;;;;;;19.58;15.35;;;;;;;13.01;100.00;100696.88;4950018;28;20069;-87
2021/10/02 07:32:05;;;;;;;20.83;15.02;;;;;;;13.01;100.00;100695.00;4955335;28;20124;-86
2021/10/02 07:34:31;;;;;;;22.80;15.23;;;;;;;13.00;100.00;100690.63;4930429;28;20043;-87
2021/10/02 07:36:57;;;;;;;23.90;15.80;;;;;;;13.07;100.00;100685.38;4945433;28;20094;-87
2021/10/02 07:39:23;;;;;;;22.33;14.77;;;;;;;13.06;100.00;100689.06;4948515;28;20047;-87
2021/10/02 07:41:49;;;;;;;17.77;14.15;;;;;;;13.08;100.00;100682.47;4936816;28;20122;-88
2021/10/02 07:44:20;;;;;;;17.17;13.43;;;;;;;13.10;100.00;100676.91;4959832;28;20051;-87
2021/10/02 07:46:52;;;;;;;18.35;12.93;;;;;;;13.14;100.00;100675.50;4961182;28;20050;-88
2021/10/02 07:49:19;;;;;;;17.65;11.15;;;;;;;13.17;100.00;100675.16;4962831;28;20126;-87
2021/10/02 07:51:46;;;;;;;20.05;11.77;;;;;;;13.20;100.00;100664.00;4963141;28;20043;-87
2021/10/02 07:54:12;;;;;;;16.05;11.25;;;;;;;13.23;100.00;100674.41;4957528;28;21001;-88
2021/10/02 07:56:39;;;;;;;13.40;10.55;;;;;;;13.26;100.00;100667.84;4960981;28;20346;-87
2021/10/02 07:59:08;;;;;;;17.20;11.55;;;;;;;13.34;100.00;100665.06;4958991;28;20034;-89
2021/10/02 08:01:36;;;;;;;13.60;10.25;;;;;;;13.38;100.00;100662.81;4950195;28;20122;-86
2021/10/02 08:04:03;;;;;;;13.00;10.10;;;;;;;13.38;100.00;100665.53;4939598;28;20054;-87
2021/10/02 08:06:30;;;;;;;12.15;9.63;;;;;;;13.38;100.00;100658.31;4942404;28;20586;-88
2021/10/02 08:08:57;;;;;;;15.55;9.32;;;;;;;13.40;100.00;100656.22;4939721;28;20375;-87
2021/10/02 08:11:22;;;;;;;12.38;9.65;;;;;;;13.46;100.00;100663.56;4930359;28;20047;-87
2021/10/02 08:13:48;;;;;;;18.60;9.48;;;;;;;13.47;100.00;100653.66;4925147;28;20421;-91
2021/10/02 08:16:15;;;;;;;13.32;8.85;;;;;;;13.52;100.00;100654.75;4944852;28;20244;-89
2021/10/02 08:18:43;;;;;;;13.18;8.32;;;;;;;13.60;100.00;100653.81;4940625;28;20171;-88
2021/10/02 08:21:09;;;;;;;14.48;8.38;;;;;;;13.64;100.00;100649.72;4957108;28;20047;-87
2021/10/02 08:23:37;;;;;;;14.57;8.90;;;;;;;13.71;100.00;100644.41;4941502;28;20093;-88
2021/10/02 08:26:04;;;;;;;13.68;8.93;;;;;;;13.77;100.00;100654.44;4932814;28;20478;-90
2021/10/02 08:28:33;;;;;;;11.95;8.20;;;;;;;13.79;100.00;100652.41;4940345;28;20735;-87
2021/10/02 08:31:00;;;;;;;11.02;8.60;;;;;;;13.84;100.00;100649.13;4938820;28;20445;-88
2021/10/02 08:33:26;;;;;;;14.30;7.57;;;;;;;13.85;100.00;100640.84;4944117;28;20485;-88
2021/10/02 08:35:51;;;;;;;9.18;7.97;;;;;;;13.87;100.00;100638.81;4935966;28;20069;-91
2021/10/02 08:38:18;;;;;;;11.43;7.07;;;;;;;13.88;100.00;100637.78;4940319;28;20047;-88
2021/10/02 08:40:44;;;;;;;11.63;7.78;;;;;;;13.94;100.00;100636.19;4940910;28;20458;-90
2021/10/02 08:43:14;;;;;;;8.35;5.70;;;;;;;13.98;100.00;100637.47;4941299;28;20126;-89
2021/10/02 08:45:42;;;;;;;8.70;5.50;;;;;;;14.01;100.00;100639.78;4939260;28;20150;-89
2021/10/02 08:48:16;;;;;;;10.27;5.45;;;;;;;14.04;99.96;100642.13;4940497;28;20061;-90
2021/10/02 08:50:44;;;;;;;10.35;5.85;;;;;;;14.04;99.57;100634.03;4938558;28;20126;-89
2021/10/02 08:53:10;;;;;;;7.60;5.38;;;;;;;14.10;99.63;100643.22;4942426;28;20066;-88
2021/10/02 08:55:36;;;;;;;8.10;5.30;;;;;;;14.11;99.85;100639.50;4938040;28;20058;-90
2021/10/02 08:58:03;;;;;;;9.02;5.20;;;;;;;14.13;99.85;100616.69;4943019;28;20043;-91
2021/10/02 09:00:29;;;;;;;9.18;4.88;;;;;;;14.16;98.65;100621.69;4941840;28;20544;-89
2021/10/02 09:02:55;;;;;;;8.13;4.18;;;;;;;14.11;97.79;100634.91;4937084;28;20061;-88
2021/10/02 09:05:22;;;;;;;11.35;4.97;;;;;;;14.18;98.23;100622.34;4942685;28;20680;-90
2021/10/02 09:07:49;;;;;;;6.53;4.25;;;;;;;14.17;97.50;100628.75;4941760;28;21577;-88
2021/10/02 09:10:15;;;;;;;8.07;5.18;;;;;;;14.22;98.14;100626.31;4944963;28;20103;-88
2021/10/02 09:12:43;;;;;;;7.47;4.75;;;;;;;14.22;98.23;100625.50;4939793;28;20055;-87
2021/10/02 09:15:09;;;;;;;8.15;4.43;;;;;;;14.29;98.57;100625.56;4947313;28;20445;-90
2021/10/02 09:17:34;;;;;;;9.32;4.38;;;;;;;14.29;98.05;100625.56;4955379;28;20049;-87
2021/10/02 09:20:00;;;;;;;6.82;4.55;;;;;;;14.25;97.67;100624.28;4944606;28;20070;-86
2021/10/02 09:22:27;;;;;;;11.77;5.13;;;;;;;14.24;98.03;100623.41;4923176;28;20047;-87
2021/10/02 09:24:55;;;;;;;9.93;4.70;;;;;;;14.25;98.25;100624.28;4951367;28;20051;-88
2021/10/02 09:27:28;;;;;;;8.87;4.97;;;;;;;14.24;98.09;100626.13;4959566;28;20457;-87
2021/10/02 09:30:02;;;;;;;8.20;5.40;;;;;;;14.31;98.49;100615.41;4948777;28;20782;-88
2021/10/02 09:32:34;;;;;;;7.30;4.88;;;;;;;14.27;97.97;100611.41;4958125;28;20520;-86
2021/10/02 09:35:03;;;;;;;9.73;5.15;;;;;;;14.29;98.88;100609.34;4957848;28;20059;-90
2021/10/02 09:37:32;;;;;;;9.77;5.22;;;;;;;14.26;98.35;100607.88;4952532;28;20047;-87
2021/10/02 09:40:03;;;;;;;9.00;4.90;;;;;;;14.28;99.52;100607.69;4949410;28;20584;-90
2021/10/02 09:42:40;;;;;;;9.88;5.38;;;;;;;14.28;99.03;100596.91;4947618;28;20109;-87
2021/10/02 09:45:11;;;;;;;7.85;5.38;;;;;;;14.31;98.67;100602.75;4928134;29;20059;-89
2021/10/02 09:47:39;;;;;;;7.90;4.50;;;;;;;14.36;99.38;100602.16;4950840;28;20522;-89
2021/10/02 09:50:18;;;;;;;8.23;4.88;;;;;;;14.41;99.09;100586.22;4950039;28;20058;-87
2021/10/02 09:52:54;;;;;;;9.05;5.15;;;;;;;14.49;99.17;100583.38;4936060;28;20042;-88
2021/10/02 09:55:22;;;;;;;8.02;5.40;;;;;;;14.52;98.44;100580.31;4939187;28;20064;-88
2021/10/02 09:57:50;;;;;;;9.40;5.43;;;;;;;14.61;98.50;100576.44;4952194;28;20082;-88
2021/10/02 10:00:19;;;;;;;7.25;5.57;;;;;;;14.69;98.27;100586.25;4957701;28;20441;-90
2021/10/02 10:02:45;;;;;;;9.38;5.93;;;;;;;14.74;98.54;100575.72;4954992;28;20553;-87
2021/10/02 10:05:12;;;;;;;10.63;5.97;;;;;;;14.75;97.16;100569.28;4942569;28;20062;-89
2021/10/02 10:07:38;;;;;;;9.23;6.15;;;;;;;14.83;98.93;100574.53;4941513;28;20043;-89
2021/10/02 10:10:05;;;;;;;7.55;6.28;;;;;;;14.82;97.48;100558.53;4939663;28;20276;-86
2021/10/02 10:12:31;;;;;;;12.40;8.10;;;;;;;14.87;98.52;100550.66;4941858;28;20051;-88
2021/10/02 10:14:57;;;;;;;9.23;6.32;;;;;;;14.83;97.14;100547.50;4927429;28;20086;-88
2021/10/02 10:17:23;;;;;;;8.88;6.47;;;;;;;14.79;97.54;100554.34;4942547;28;20078;-89
2021/10/02 10:20:08;;;;;;;8.27;5.80;;;;;;;14.88;98.36;100549.63;4936961;28;20051;-89
2021/10/02 10:22:35;;;;;;;9.52;6.90;;;;;;;14.88;96.88;100544.22;4938428;28;20059;-86
2021/10/02 10:25:05;;;;;;;9.35;6.07;;;;;;;14.96;96.81;100546.78;4939672;28;20055;-89
2021/10/02 10:27:45;;;;;;;11.90;7.60;;;;;;;14.96;95.88;100535.97;4939156;28;20051;-89
2021/10/02 10:30:11;;;;;;;10.32;5.47;;;;;;;15.00;95.59;100537.22;4915964;28;20418;-89
2021/10/02 10:32:38;;;;;;;10.07;5.60;;;;;;;15.04;96.03;100527.66;4929592;28;20044;-86
2021/10/02 10:35:06;;;;;;;7.85;5.30;;;;;;;15.12;95.50;100519.41;4926597;28;20060;-89
2021/10/02 10:37:32;;;;;;;8.50;4.68;;;;;;;15.17;95.28;100532.31;4929416;28;20071;-89
2021/10/02 10:39:57;;;;;;;8.13;4.63;;;;;;;15.25;95.84;100534.88;4916912;28;20451;-88
2021/10/02 10:42:30;;;;;;;6.10;3.70;;;;;;;15.26;94.57;100527.59;4920172;29;20052;-89
2021/10/02 10:44:57;;;;;;;7.60;3.55;;;;;;;15.28;94.22;100520.13;4930449;28;20052;-87
2021/10/02 10:47:24;;;;;;;10.90;5.22;;;;;;;15.34;94.51;100524.72;4922315;28;20061;-89
2021/10/02 10:49:50;;;;;;;5.90;3.80;;;;;;;15.43;94.53;100520.78;4928703;28;20131;-90
2021/10/02 10:52:17;;;;;;;8.38;5.13;;;;;;;15.55;93.38;100515.63;4918437;28;20119;-88
2021/10/02 10:54:44;;;;;;;6.75;2.30;;;;;;;15.61;91.97;100513.97;4920621;29;20079;-90
2021/10/02 10:57:36;;;;;;;5.40;2.30;;;;;;;15.57;88.78;100513.56;4925893;28;20083;-88
2021/10/02 11:00:08;;;;;;;4.80;1.90;;;;;;;15.60;89.58;100509.63;4936944;28;20078;-89
2021/10/02 11:02:49;;;;;;;5.45;2.15;;;;;;;15.65;90.50;100507.09;4936497;29;20039;-88
2021/10/02 11:05:37;;;;;;;6.88;1.95;;;;;;;15.59;88.57;100503.34;4948024;28;20051;-89
2021/10/02 11:08:07;;;;;;;4.57;1.50;;;;;;;15.58;88.27;100489.00;4937232;28;20075;-88
2021/10/02 11:10:44;;;;;;;4.57;1.60;;;;;;;15.56;88.68;100493.81;4922629;29;20226;-89
2021/10/02 11:13:26;;;;;;;4.80;2.03;;;;;;;15.62;89.40;100491.28;4936084;28;20078;-88
2021/10/02 11:15:53;;;;;;;6.15;2.33;;;;;;;15.58;87.71;100480.88;4937501;28;20055;-88
2021/10/02 11:18:47;;;;;;;5.80;2.10;;;;;;;15.60;88.24;100487.97;4931601;29;20040;-92
2021/10/02 11:21:18;;;;;;;3.80;2.03;;;;;;;15.58;88.52;100486.28;4941535;28;20058;-89
2021/10/02 11:24:05;;;;;;;4.18;1.60;;;;;;;15.56;88.99;100488.41;4946498;28;20564;-88
2021/10/02 11:26:43;;;;;;;7.28;1.60;;;;;;;15.54;89.18;100485.06;4963598;28;20043;-89
2021/10/02 11:29:19;;;;;;;4.53;1.45;;;;;;;15.60;89.96;100478.00;4947344;28;20054;-87
2021/10/02 11:31:45;;;;;;;4.90;1.48;;;;;;;15.58;88.88;100463.81;4944510;28;20093;-88
2021/10/02 11:34:19;;;;;;;4.22;1.50;;;;;;;15.53;88.58;100471.72;4943682;28;20308;-87
2021/10/02 11:36:54;;;;;;;3.80;1.17;;;;;;;15.50;87.67;100456.72;4940984;28;20051;-88
2021/10/02 11:39:31;;;;;;;3.85;1.45;;;;;;;15.49;88.48;100454.25;4943072;28;20047;-89
2021/10/02 11:41:58;;;;;;;3.20;1.35;;;;;;;15.51;89.02;100446.78;4942712;28;20138;-89
2021/10/02 11:44:33;;;;;;;4.05;1.45;;;;;;;15.47;88.55;100451.72;4926991;28;20043;-88
2021/10/02 11:47:37;;;;;;;5.25;1.70;;;;;;;15.43;87.88;100441.56;4940907;28;20487;-88
2021/10/02 11:50:12;;;;;;;3.70;1.80;;;;;;;15.42;89.08;100443.44;4951010;28;20063;-89
2021/10/02 11:52:44;;;;;;;4.88;1.65;;;;;;;15.40;88.99;100433.84;4925113;28;20058;-90
2021/10/02 11:55:35;;;;;;;4.07;1.65;;;;;;;15.44;89.73;100424.28;4933881;28;20059;-88
2021/10/02 11:58:09;;;;;;;4.03;1.98;;;;;;;15.51;90.15;100427.84;4948142;28;20054;-88
2021/10/02 12:00:48;;;;;;;4.57;2.40;;;;;;;15.61;90.43;100424.72;4955578;28;20296;-89
2021/10/02 12:03:35;;;;;;;;;;;;;;;15.71;90.65;100419.78;4927515;28;20047;-88
2021/10/02 12:06:03;;;;;;;6.82;3.13;;;;;;;15.68;89.54;100412.06;4952166;28;19968;-88
2021/10/02 12:08:31;;;;;;;5.10;2.80;;;;;;;15.74;89.18;100403.13;4930878;28;20253;-91
2021/10/02 12:11:08;;;;;;;6.07;3.85;;;;;;;15.84;90.05;100395.44;4942607;28;20303;-89
2021/10/02 12:13:34;;;;;;;6.35;4.05;;;;;;;15.96;90.30;100382.94;4945521;28;20547;-89